Nye, MT

6:02 PM MST on February 05, 2016 (GMT -0700)
Cathedral Mountain Ranch | | Change Station
CLOSE
Current Station
Personal Weather Station
Location: Nye, MT
Elevation: 5259 ft
Nearby Weather Stations
Active Advisory: Wind Advisory

Elev 5259 ft 45.41 °N, 109.87 °W | Updated 2 minutes ago

Clear
Clear
35.7 °F
Feels Like 24 °F
N
22.0
Wind Variable Wind from South
Gusts 33.0 mph

Today
High -- | Low -- °F
--% Chance of Precip.
Yesterday
High -- | Low -- °F
Precip. -- in
Pressure 30.28 in
Visibility 10.0 miles
Clouds Clear
Windchill 24 °F
Dew Point 17 °F
Humidity 46%
Rainfall 0.00 in
Snow Depth Not available.
7:35 AM 5:31 PM
Waning Crescent, 8% visible
METAR KLVM 060053Z AUTO 22027G38KT 10SM CLR 03/M09 A3020 RMK AO2 PK WND 22042/0010 SLP254 T00331089
Pressure 30.28 in
Visibility 10.0 miles
Clouds Clear
Windchill 24 °F
Dew Point 17 °F
Humidity 46%
Rainfall 0.00 in
Snow Depth Not available.
7:35 AM 5:31 PM
Waning Crescent, 8% visible
METAR KLVM 060053Z AUTO 22027G38KT 10SM CLR 03/M09 A3020 RMK AO2 PK WND 22042/0010 SLP254 T00331089

10-Day Weather Forecast

Almanac

Astronomy

Feb. 05, 2016 Rise Set
Actual Time
Civil Twilight
Nautical Twilight
Astronomical Twilight
Moon
Length of Visible Light
Length of Day
Tomorrow will be .
, % of the Moon is Illuminated

Today's Extremes

State Highs State Lows

Community

WunderPhotos

Upload Photos

1,890,902 photos uploaded!

WunderBlog® & News

Nearby

Air Quality

  Air Quality AQ Index Pollutant
Not available.

Snow Depth

Station Depth Elevation

Earthquake Activity

City Distance Mag. Time & Date
Minimum magnitude displayed is 2.5.

Coastal Water Temperatures

Place Temperature

Stations

Nearby Weather Stations

Station Location Temp. Windchill Dew Point Humidity Wind Precip. Elev Updated Type
                   

Watches & Warnings

Wind Advisory
Issued: 1:23 PM MST Feb. 5, 2016 – National Weather Service

... Wind Advisory remains in effect from 5 PM this afternoon to
5 am MST Sunday...

* impacts... dangerous cross winds on Interstate 90 around
Livingston and on local roads near Nye.

* Timing... southwest winds will increase this evening becoming
very strong overnight. These strong winds will continue
through at least Saturday evening. The period of strongest
winds is expected to be from 3 am to 9 am Saturday.

* Winds... gusts to 65 mph are expected.

Precautionary/preparedness actions...

Winds this strong can make driving difficult... especially for
high profile vehicles. Use extra caution.